Time;durP1;ratioP1;P1;durP2;ratioP2;P2;SDS_P1;SDS_P2;PMS_P1;PMS_P2;Temp;Humidity;BMP_temperature;BMP_pressure;BME280_temperature;BME280_humidity;BME280_pressure;Samples;Min_cycle;Max_cycle;Signal;HPM_P1;HPM_P2
2022/06/02 00:00:05;;;;;;;2.15;1.95;;;17.10;55.80;;;;;;4916566;29;20060;-79
2022/06/02 00:03:14;;;;;;;2.75;2.10;;;17.10;55.90;;;;;;4901566;29;20088;-79
2022/06/02 00:06:05;;;;;;;2.55;2.20;;;17.10;56.00;;;;;;4901571;29;20469;-79
2022/06/02 00:08:40;;;;;;;3.47;2.30;;;17.00;56.00;;;;;;4917021;29;20035;-79
2022/06/02 00:11:08;;;;;;;2.75;2.20;;;17.00;56.00;;;;;;4901877;29;20032;-79
2022/06/02 00:14:10;;;;;;;3.35;2.50;;;17.00;56.00;;;;;;4901296;29;20382;-79
2022/06/02 00:17:15;;;;;;;2.53;2.20;;;16.90;56.20;;;;;;4899062;29;20063;-79
2022/06/02 00:20:05;;;;;;;2.78;2.22;;;16.90;56.20;;;;;;4900218;29;20094;-79
2022/06/02 00:22:53;;;;;;;2.70;2.33;;;16.80;56.10;;;;;;4907222;29;20052;-79
2022/06/02 00:25:35;;;;;;;2.85;2.30;;;16.80;56.30;;;;;;4937966;29;20035;-79
2022/06/02 00:28:22;;;;;;;2.70;2.20;;;16.80;56.30;;;;;;4939219;29;20086;-79
2022/06/02 00:31:27;;;;;;;2.45;2.22;;;16.70;56.20;;;;;;4937972;29;20038;-79
2022/06/02 00:34:11;;;;;;;2.60;2.20;;;16.70;56.40;;;;;;4935102;29;20044;-79
2022/06/02 00:36:40;;;;;;;2.83;2.33;;;16.70;56.30;;;;;;4954292;29;20067;-79
2022/06/02 00:39:08;;;;;;;2.72;2.20;;;16.60;56.30;;;;;;4938060;29;20126;-78
2022/06/02 00:42:05;;;;;;;3.53;2.70;;;16.60;56.40;;;;;;4922280;29;20031;-79
2022/06/02 00:44:44;;;;;;;3.65;2.72;;;16.50;56.50;;;;;;4939230;29;20032;-79
2022/06/02 00:47:37;;;;;;;3.00;2.60;;;16.50;56.50;;;;;;4954232;29;20032;-79
2022/06/02 00:50:05;;;;;;;3.30;2.67;;;16.50;56.60;;;;;;4938612;29;20434;-79
2022/06/02 00:52:54;;;;;;;3.88;2.85;;;16.50;56.50;;;;;;4938609;29;20012;-79
2022/06/02 00:58:30;;;;;;;3.42;2.58;;;16.40;56.60;;;;;;4953716;29;20047;-79
2022/06/02 01:01:01;;;;;;;3.17;2.60;;;16.40;56.60;;;;;;4953438;29;20597;-79
2022/06/02 01:03:37;;;;;;;3.78;2.78;;;16.30;56.60;;;;;;4953674;29;20031;-79
2022/06/02 01:06:09;;;;;;;3.75;2.83;;;16.30;56.80;;;;;;4937512;29;20042;-79
2022/06/02 01:08:37;;;;;;;3.05;2.75;;;16.30;56.70;;;;;;4937418;29;20028;-79
2022/06/02 01:11:18;;;;;;;3.00;2.60;;;16.20;56.70;;;;;;4937350;29;20487;-79
2022/06/02 01:13:56;;;;;;;3.30;2.83;;;16.20;56.80;;;;;;4953265;29;20099;-79
2022/06/02 01:16:34;;;;;;;3.55;2.90;;;16.20;56.80;;;;;;4953166;29;20028;-79
2022/06/02 01:19:46;;;;;;;3.67;2.75;;;16.10;56.80;;;;;;4937629;29;20167;-79
2022/06/02 01:22:59;;;;;;;2.97;2.42;;;16.10;56.90;;;;;;4921331;29;20020;-78
2022/06/02 01:25:55;;;;;;;3.15;2.75;;;16.10;56.90;;;;;;4924086;29;20039;-79
2022/06/02 01:28:43;;;;;;;4.20;3.03;;;16.00;56.80;;;;;;4938885;28;20028;-79
2022/06/02 01:31:48;;;;;;;2.92;2.50;;;16.00;57.00;;;;;;4953188;29;20035;-79
2022/06/02 01:34:37;;;;;;;3.13;2.60;;;15.90;57.00;;;;;;4938116;29;20027;-79
2022/06/02 01:37:40;;;;;;;2.67;2.42;;;15.90;56.90;;;;;;4937268;29;20019;-79
2022/06/02 01:40:06;;;;;;;3.35;2.60;;;15.90;57.10;;;;;;4937394;29;20024;-79
2022/06/02 01:42:50;;;;;;;3.05;2.70;;;15.80;56.90;;;;;;4938272;29;20440;-79
2022/06/02 01:45:24;;;;;;;3.15;2.80;;;15.80;57.10;;;;;;4937250;29;20028;-79
2022/06/02 01:48:18;;;;;;;3.90;3.13;;;15.80;57.10;;;;;;4938937;29;20047;-79
2022/06/02 01:51:06;;;;;;;3.17;2.60;;;15.70;57.20;;;;;;4939341;29;20268;-80
2022/06/02 01:53:44;;;;;;;3.05;2.58;;;15.80;57.20;;;;;;4939506;29;20529;-79
2022/06/02 01:56:29;;;;;;;3.13;2.75;;;15.70;57.10;;;;;;4941985;29;20031;-79
2022/06/02 01:59:24;;;;;;;4.07;3.00;;;15.70;57.20;;;;;;4943669;29;20115;-79
2022/06/02 02:01:56;;;;;;;3.65;2.95;;;15.60;57.20;;;;;;4942268;29;20374;-79
2022/06/02 02:04:27;;;;;;;3.92;3.20;;;15.60;57.20;;;;;;4942571;29;20063;-80
2022/06/02 02:07:12;;;;;;;3.80;3.00;;;15.60;57.30;;;;;;4956378;29;20097;-80
2022/06/02 02:09:55;;;;;;;3.63;3.10;;;15.60;57.30;;;;;;4939126;29;20031;-79
2022/06/02 02:12:45;;;;;;;4.15;3.30;;;15.50;57.40;;;;;;4954302;29;20036;-79
2022/06/02 02:15:26;;;;;;;4.05;3.40;;;15.50;57.50;;;;;;4937994;29;20039;-79
2022/06/02 02:17:57;;;;;;;4.25;3.42;;;15.50;57.50;;;;;;4951825;29;20028;-79
2022/06/02 02:20:35;;;;;;;3.67;2.85;;;15.40;57.40;;;;;;4952244;29;20024;-79
2022/06/02 02:23:14;;;;;;;3.97;3.22;;;15.40;57.40;;;;;;4935878;29;20497;-79
2022/06/02 02:25:54;;;;;;;4.25;3.35;;;15.40;57.50;;;;;;4936867;29;20032;-80
2022/06/02 02:28:48;;;;;;;3.95;3.03;;;15.30;58.10;;;;;;4936683;29;20437;-79
2022/06/02 02:31:26;;;;;;;3.25;2.80;;;15.30;57.60;;;;;;4936187;29;20110;-79
2022/06/02 02:34:15;;;;;;;4.68;3.38;;;15.30;57.60;;;;;;4937020;29;20063;-79
2022/06/02 02:37:07;;;;;;;3.90;3.17;;;15.30;57.70;;;;;;4951986;29;20050;-79
2022/06/02 02:39:55;;;;;;;4.05;3.22;;;15.20;57.60;;;;;;4936400;29;20028;-80
2022/06/02 02:43:10;;;;;;;3.72;2.95;;;15.20;57.60;;;;;;4952339;28;20356;-80
2022/06/02 02:45:46;;;;;;;3.35;2.88;;;15.20;57.70;;;;;;4914620;29;20122;-80
2022/06/02 02:48:23;;;;;;;3.97;3.15;;;15.10;57.60;;;;;;4952081;29;20039;-80
2022/06/02 02:51:03;;;;;;;4.47;3.17;;;15.10;57.70;;;;;;4952075;29;20131;-80
2022/06/02 02:53:39;;;;;;;4.70;3.60;;;15.10;57.70;;;;;;4936956;29;20032;-80
2022/06/02 02:56:49;;;;;;;4.68;3.72;;;15.10;57.80;;;;;;4937519;29;20024;-80
2022/06/02 02:59:41;;;;;;;4.03;3.20;;;15.00;57.90;;;;;;4896903;29;20115;-79
2022/06/02 03:02:22;;;;;;;4.88;3.40;;;15.00;57.80;;;;;;4839653;29;20592;-79
2022/06/02 03:05:00;;;;;;;4.97;3.40;;;15.00;57.80;;;;;;4940394;29;20043;-79
2022/06/02 03:07:29;;;;;;;4.32;3.53;;;15.00;57.90;;;;;;4939142;29;20028;-79
2022/06/02 03:10:25;;;;;;;4.60;3.80;;;14.90;57.80;;;;;;4938002;29;20349;-80
2022/06/02 03:12:56;;;;;;;;;;;14.90;58.00;;;;;;4938986;29;20088;-80
2022/06/02 03:15:40;;;;;;;3.33;2.80;;;14.90;57.80;;;;;;4937904;29;19906;-80
2022/06/02 03:18:32;;;;;;;3.80;3.13;;;14.80;57.80;;;;;;4936626;29;20027;-80
2022/06/02 03:20:58;;;;;;;4.03;3.38;;;14.80;58.00;;;;;;4937552;29;20031;-80
2022/06/02 03:23:39;;;;;;;4.97;3.92;;;14.80;58.00;;;;;;4935359;29;20070;-80
2022/06/02 03:26:27;;;;;;;4.13;3.50;;;14.80;58.80;;;;;;4938256;29;20146;-79
2022/06/02 03:28:55;;;;;;;4.65;3.67;;;14.70;58.10;;;;;;4951696;29;20081;-80
2022/06/02 03:31:27;;;;;;;4.30;3.47;;;14.70;58.10;;;;;;4951993;29;20111;-80
2022/06/02 03:34:17;;;;;;;4.65;3.55;;;14.70;58.20;;;;;;4951503;29;20461;-79
2022/06/02 03:37:24;;;;;;;4.47;3.50;;;14.70;58.30;;;;;;4936596;29;20036;-79
2022/06/02 03:40:11;;;;;;;3.90;3.30;;;14.60;58.20;;;;;;4913337;29;20040;-79
2022/06/02 03:42:48;;;;;;;4.53;3.78;;;14.60;58.30;;;;;;4936520;29;20036;-79
2022/06/02 03:45:41;;;;;;;4.15;3.75;;;14.60;58.20;;;;;;4951946;29;20019;-79
2022/06/02 03:48:16;;;;;;;4.30;3.65;;;14.60;58.40;;;;;;4936099;29;20383;-79
2022/06/02 03:50:46;;;;;;;;;;;14.50;58.30;;;;;;4951755;29;20086;-79
2022/06/02 03:53:21;;;;;;;3.63;3.13;;;14.50;58.20;;;;;;4950927;29;19918;-80
2022/06/02 03:56:08;;;;;;;4.45;3.53;;;14.50;58.30;;;;;;4936143;29;20496;-80
2022/06/02 03:59:02;;;;;;;4.53;3.50;;;14.40;58.40;;;;;;4951182;29;20019;-79
2022/06/02 04:01:41;;;;;;;4.60;3.78;;;14.40;58.50;;;;;;4919281;29;20023;-79
2022/06/02 04:04:30;;;;;;;3.97;3.40;;;14.40;58.50;;;;;;4935930;29;20035;-79
2022/06/02 04:07:14;;;;;;;4.15;3.50;;;14.40;58.50;;;;;;4934881;29;20087;-79
2022/06/02 04:09:58;;;;;;;5.40;3.90;;;14.40;58.50;;;;;;4951050;29;20159;-79
2022/06/02 04:15:36;;;;;;;4.95;3.70;;;14.30;58.60;;;;;;4950813;29;20051;-79
2022/06/02 04:18:16;;;;;;;5.32;3.70;;;14.30;58.50;;;;;;4919422;29;20036;-80
2022/06/02 04:20:41;;;;;;;5.38;4.07;;;14.30;58.60;;;;;;4951496;29;20453;-80
2022/06/02 04:23:31;;;;;;;5.05;4.15;;;14.30;58.70;;;;;;4951818;28;20063;-80
2022/06/02 04:26:31;;;;;;;4.78;3.92;;;14.20;58.80;;;;;;4939302;29;20091;-80
2022/06/02 04:29:36;;;;;;;4.70;3.90;;;14.30;58.90;;;;;;4941291;29;20032;-79
2022/06/02 04:32:12;;;;;;;4.45;3.53;;;14.20;58.90;;;;;;4948703;29;20024;-80
2022/06/02 04:34:53;;;;;;;4.65;3.88;;;14.20;58.80;;;;;;4949616;29;20037;-80
2022/06/02 04:37:43;;;;;;;4.90;3.85;;;14.20;58.90;;;;;;4940893;29;20524;-79
2022/06/02 04:40:27;;;;;;;4.95;4.13;;;14.20;59.10;;;;;;4939306;29;20030;-79
2022/06/02 04:43:18;;;;;;;4.40;3.72;;;14.20;59.10;;;;;;4953795;29;20032;-79
2022/06/02 04:46:18;;;;;;;4.63;3.72;;;14.10;59.00;;;;;;4953632;29;20406;-79
2022/06/02 04:49:11;;;;;;;4.70;3.72;;;14.20;59.10;;;;;;4917593;29;20036;-80
2022/06/02 04:51:37;;;;;;;4.68;3.50;;;14.10;59.00;;;;;;4911073;29;20040;-80
2022/06/02 04:54:08;;;;;;;4.55;3.50;;;14.10;59.00;;;;;;4938310;29;20031;-80
2022/06/02 04:56:45;;;;;;;5.50;4.00;;;14.10;59.00;;;;;;4939062;29;20039;-79
2022/06/02 04:59:24;;;;;;;4.80;3.88;;;14.10;59.10;;;;;;4937632;29;20027;-79
2022/06/02 05:02:22;;;;;;;5.30;4.00;;;14.10;59.20;;;;;;4953392;29;20047;-79
2022/06/02 05:05:12;;;;;;;4.45;3.53;;;14.10;59.20;;;;;;4953581;29;20458;-79
2022/06/02 05:07:52;;;;;;;4.68;3.72;;;14.10;59.20;;;;;;4952799;29;20038;-79
2022/06/02 05:10:46;;;;;;;5.00;4.18;;;14.10;59.10;;;;;;4938863;29;20042;-80
2022/06/02 05:13:30;;;;;;;4.70;3.80;;;14.10;59.20;;;;;;4937158;29;20376;-78
2022/06/02 05:16:11;;;;;;;5.45;4.20;;;14.10;59.20;;;;;;4937950;29;20035;-80
2022/06/02 05:18:58;;;;;;;5.28;4.15;;;14.10;59.40;;;;;;4954021;29;20042;-79
2022/06/02 05:21:58;;;;;;;5.63;4.15;;;14.10;59.40;;;;;;4937384;29;20058;-79
2022/06/02 05:24:48;;;;;;;4.43;3.80;;;14.10;59.50;;;;;;4938878;29;20071;-79
2022/06/02 05:27:32;;;;;;;4.90;3.83;;;14.10;59.40;;;;;;4938018;29;20032;-79
2022/06/02 05:30:29;;;;;;;5.45;4.30;;;14.00;59.50;;;;;;4953258;29;20045;-85
2022/06/02 05:32:55;;;;;;;4.90;3.95;;;14.10;59.50;;;;;;4937556;29;20038;-80
2022/06/02 05:36:11;;;;;;;5.55;4.60;;;14.10;59.40;;;;;;4952444;28;20032;-80
2022/06/02 05:38:52;;;;;;;;;;;14.10;59.60;;;;;;4921557;29;20047;-80
2022/06/02 05:41:27;;;;;;;3.80;3.05;;;14.10;59.30;;;;;;4938491;29;19917;-80
2022/06/02 05:44:10;;;;;;;5.28;3.58;;;14.10;59.40;;;;;;4952445;29;20086;-80
2022/06/02 05:46:58;;;;;;;5.13;3.85;;;14.00;59.60;;;;;;4937003;29;20118;-80
2022/06/02 05:49:28;;;;;;;4.75;3.90;;;14.10;59.50;;;;;;4936671;29;20126;-80
2022/06/02 05:52:06;;;;;;;4.93;4.07;;;14.10;59.50;;;;;;4937719;29;20031;-79
2022/06/02 05:54:50;;;;;;;5.57;4.10;;;14.10;59.70;;;;;;4951919;29;20032;-79
2022/06/02 05:57:54;;;;;;;4.68;3.92;;;14.10;59.60;;;;;;4952739;29;20102;-81
2022/06/02 06:00:39;;;;;;;5.32;4.57;;;14.10;59.70;;;;;;4937244;29;20019;-80
2022/06/02 06:03:13;;;;;;;;;;;14.10;59.60;;;;;;4952296;29;20109;-78
2022/06/02 06:05:45;;;;;;;4.72;3.83;;;14.10;59.40;;;;;;4951779;29;20352;-78
2022/06/02 06:08:38;;;;;;;4.68;3.95;;;14.20;59.50;;;;;;4937710;29;20117;-78
2022/06/02 06:11:47;;;;;;;4.57;3.67;;;14.10;59.60;;;;;;4891236;29;20036;-78
2022/06/02 06:14:22;;;;;;;4.60;3.67;;;14.10;59.70;;;;;;4934490;29;20179;-78
2022/06/02 06:17:18;;;;;;;4.63;3.83;;;14.20;59.70;;;;;;4936755;29;20122;-78
2022/06/02 06:20:07;;;;;;;4.75;4.00;;;14.20;59.80;;;;;;4936105;29;20086;-78
2022/06/02 06:22:53;;;;;;;5.00;4.07;;;14.20;59.70;;;;;;4936437;29;20520;-78
2022/06/02 06:25:51;;;;;;;4.32;3.70;;;14.20;59.90;;;;;;4936604;29;20024;-79
2022/06/02 06:28:20;;;;;;;4.80;4.05;;;14.20;59.90;;;;;;4888816;29;20370;-79
2022/06/02 06:31:11;;;;;;;5.00;4.50;;;14.20;59.80;;;;;;4934975;29;20031;-78
2022/06/02 06:34:02;;;;;;;4.85;4.10;;;14.20;60.00;;;;;;4935445;29;20543;-78
2022/06/02 06:36:38;;;;;;;5.25;4.20;;;14.30;59.90;;;;;;4936162;29;20042;-78
2022/06/02 06:39:31;;;;;;;4.93;3.92;;;14.30;60.00;;;;;;4950903;29;20028;-77
2022/06/02 06:42:10;;;;;;;5.25;4.28;;;14.30;60.20;;;;;;4936591;28;20110;-77
2022/06/02 06:44:43;;;;;;;5.45;4.30;;;14.30;60.20;;;;;;4936208;29;20066;-78
2022/06/02 06:47:22;;;;;;;5.10;4.25;;;14.40;60.20;;;;;;4937538;29;20028;-78
2022/06/02 06:50:04;;;;;;;5.22;4.30;;;14.40;60.30;;;;;;4937619;29;20035;-77
2022/06/02 06:53:01;;;;;;;4.63;3.97;;;14.40;60.20;;;;;;4952530;29;20031;-78
2022/06/02 06:55:56;;;;;;;5.18;3.97;;;14.40;60.20;;;;;;4952206;29;20146;-78
2022/06/02 06:58:34;;;;;;;4.65;3.70;;;14.40;60.10;;;;;;4885237;29;20037;-77
2022/06/02 07:01:06;;;;;;;4.85;3.85;;;14.50;60.20;;;;;;4951100;29;20099;-77
2022/06/02 07:03:39;;;;;;;4.50;3.53;;;14.50;60.20;;;;;;4950864;29;20041;-78
2022/06/02 07:06:40;;;;;;;4.63;3.72;;;14.50;60.20;;;;;;4934796;29;20032;-77
2022/06/02 07:09:21;;;;;;;4.35;3.53;;;14.50;60.30;;;;;;4911488;29;20055;-77
2022/06/02 07:14:55;;;;;;;3.95;3.22;;;14.60;60.30;;;;;;4935528;29;20584;-78
2022/06/02 07:17:21;;;;;;;4.05;3.22;;;14.60;60.30;;;;;;4934430;29;20090;-78
2022/06/02 07:20:03;;;;;;;4.38;3.42;;;14.60;60.20;;;;;;4950644;29;20479;-77
2022/06/02 07:22:43;;;;;;;5.38;3.90;;;14.60;60.20;;;;;;4934988;29;20364;-78
2022/06/02 07:25:23;;;;;;;4.07;3.38;;;14.70;60.20;;;;;;4936203;29;20070;-78
2022/06/02 07:28:03;;;;;;;4.63;3.35;;;14.70;60.20;;;;;;4934949;29;20036;-78
2022/06/02 07:30:28;;;;;;;4.18;3.35;;;14.80;60.20;;;;;;4934939;29;20353;-79
2022/06/02 07:33:19;;;;;;;4.25;3.45;;;14.80;60.10;;;;;;4950599;29;20030;-78
2022/06/02 07:35:54;;;;;;;3.85;2.80;;;14.90;60.20;;;;;;4950795;29;20050;-81
2022/06/02 07:38:43;;;;;;;;;;;14.90;60.10;;;;;;4952054;29;20024;-77
2022/06/02 07:41:28;;;;;;;3.05;2.30;;;15.00;59.90;;;;;;4936788;29;19911;-78
2022/06/02 07:44:15;;;;;;;2.45;2.15;;;15.10;60.00;;;;;;4939976;29;20034;-79
2022/06/02 07:47:11;;;;;;;3.15;2.60;;;15.10;59.90;;;;;;4936994;29;20063;-79
2022/06/02 07:49:53;;;;;;;;;;;15.20;60.00;;;;;;4951972;29;20036;-78
2022/06/02 07:52:52;;;;;;;2.55;2.30;;;15.30;59.70;;;;;;4935270;29;20228;-80
2022/06/02 07:55:25;;;;;;;2.45;2.20;;;15.30;59.70;;;;;;4935769;29;20123;-79
2022/06/02 07:58:03;;;;;;;2.63;2.17;;;15.40;59.70;;;;;;4935599;29;20035;-81
2022/06/02 08:00:37;;;;;;;3.92;2.83;;;15.50;59.80;;;;;;4938084;29;20028;-80
2022/06/02 08:03:09;;;;;;;2.45;2.17;;;15.60;59.80;;;;;;4937923;29;20031;-80
2022/06/02 08:05:51;;;;;;;3.47;2.35;;;15.70;59.70;;;;;;4937933;29;20036;-80
2022/06/02 08:08:29;;;;;;;2.22;2.03;;;15.80;59.70;;;;;;4938106;29;20035;-80
2022/06/02 08:11:15;;;;;;;2.30;1.98;;;15.90;59.70;;;;;;4953668;29;20031;-80
2022/06/02 08:13:46;;;;;;;2.15;1.95;;;16.00;59.60;;;;;;4939723;29;20512;-80
2022/06/02 08:16:21;;;;;;;2.20;2.00;;;16.10;59.50;;;;;;4953522;29;20028;-80
2022/06/02 08:19:08;;;;;;;2.05;1.85;;;16.20;59.40;;;;;;4938028;29;20042;-80
2022/06/02 08:21:55;;;;;;;1.90;1.80;;;16.30;59.30;;;;;;4938078;29;20024;-81
2022/06/02 08:24:59;;;;;;;2.50;1.88;;;16.50;59.20;;;;;;4939161;29;20103;-80
2022/06/02 08:27:40;;;;;;;2.20;2.00;;;16.60;59.20;;;;;;4937221;29;20118;-80
2022/06/02 08:30:28;;;;;;;1.80;1.70;;;16.70;59.00;;;;;;4953357;29;20538;-80
2022/06/02 08:33:06;;;;;;;2.33;1.83;;;16.80;58.90;;;;;;4938293;29;20095;-81
2022/06/02 08:35:47;;;;;;;1.98;1.77;;;16.90;58.80;;;;;;4937604;29;20027;-80
2022/06/02 08:38:33;;;;;;;2.35;2.10;;;17.00;58.60;;;;;;4937595;29;20083;-80
2022/06/02 08:41:30;;;;;;;1.58;1.48;;;17.10;58.50;;;;;;4953533;29;20028;-80
2022/06/02 08:44:23;;;;;;;2.13;1.90;;;17.30;58.50;;;;;;4953495;29;20040;-81
2022/06/02 08:47:10;;;;;;;1.63;1.52;;;17.40;58.40;;;;;;4953598;29;20530;-80
2022/06/02 08:49:48;;;;;;;1.75;1.65;;;17.50;58.40;;;;;;4937269;29;20038;-80
2022/06/02 08:52:45;;;;;;;2.00;1.80;;;17.60;58.30;;;;;;4953166;29;20487;-80
2022/06/02 08:55:25;;;;;;;2.20;1.90;;;17.70;58.30;;;;;;4937416;29;20044;-79
2022/06/02 08:58:13;;;;;;;1.85;1.70;;;17.80;58.10;;;;;;4938005;29;20042;-80
2022/06/02 09:01:16;;;;;;;1.70;1.58;;;17.90;58.10;;;;;;4953539;29;20027;-80
2022/06/02 09:04:01;;;;;;;1.83;1.65;;;18.00;58.00;;;;;;4938119;29;20432;-79
2022/06/02 09:06:51;;;;;;;1.60;1.50;;;18.10;57.80;;;;;;4954674;29;20479;-81
2022/06/02 09:09:29;;;;;;;1.50;1.40;;;18.20;57.80;;;;;;4938822;29;20118;-78
2022/06/02 09:12:25;;;;;;;1.98;1.60;;;18.30;57.80;;;;;;4941530;29;20027;-78
2022/06/02 09:15:12;;;;;;;1.60;1.40;;;18.40;57.80;;;;;;4956418;29;20581;-78
2022/06/02 09:17:41;;;;;;;1.80;1.40;;;18.50;57.70;;;;;;4953235;29;20055;-77
2022/06/02 09:20:47;;;;;;;1.50;1.40;;;18.50;57.60;;;;;;4952913;29;20027;-78
2022/06/02 09:23:35;;;;;;;1.48;1.35;;;18.60;57.70;;;;;;4937462;29;20098;-79
2022/06/02 09:26:21;;;;;;;1.30;1.20;;;18.80;57.50;;;;;;4938063;29;20346;-78
2022/06/02 09:29:00;;;;;;;1.90;1.70;;;18.80;57.40;;;;;;4953307;29;20035;-78
2022/06/02 09:31:55;;;;;;;1.50;1.40;;;18.90;57.30;;;;;;4936581;29;20064;-78
2022/06/02 09:34:48;;;;;;;1.60;1.50;;;19.00;57.20;;;;;;4938321;29;20433;-78
2022/06/02 09:37:41;;;;;;;1.60;1.40;;;19.20;57.20;;;;;;4952623;29;20034;-78
2022/06/02 09:40:13;;;;;;;1.35;1.25;;;19.20;57.00;;;;;;4937693;29;20533;-78
2022/06/02 09:43:12;;;;;;;1.42;1.33;;;19.40;56.90;;;;;;4952297;29;20090;-77
2022/06/02 09:45:49;;;;;;;1.50;1.40;;;19.50;56.90;;;;;;4938301;29;20437;-78
2022/06/02 09:48:36;;;;;;;1.55;1.40;;;19.60;56.80;;;;;;4936550;29;20023;-78
2022/06/02 09:51:12;;;;;;;1.83;1.45;;;19.70;56.80;;;;;;4936076;29;20456;-79
2022/06/02 09:53:53;;;;;;;1.30;1.20;;;19.80;56.60;;;;;;4952054;29;20117;-79
2022/06/02 09:56:25;;;;;;;1.60;1.42;;;19.90;56.50;;;;;;4936255;29;20028;-80
2022/06/02 09:59:10;;;;;;;1.95;1.50;;;20.00;56.20;;;;;;4937233;29;20106;-77
2022/06/02 10:01:49;;;;;;;;;;;20.10;55.50;;;;;;4952737;29;20027;-78
2022/06/02 10:04:43;;;;;;;1.90;1.70;;;20.20;55.40;;;;;;4936366;29;19958;-81
2022/06/02 10:07:18;;;;;;;2.42;1.63;;;20.20;54.70;;;;;;4951928;29;20020;-77
2022/06/02 10:10:23;;;;;;;1.65;1.55;;;20.30;54.30;;;;;;4952061;29;20048;-81
2022/06/02 10:13:04;;;;;;;1.75;1.60;;;20.40;54.00;;;;;;4935713;29;20028;-83
2022/06/02 10:15:58;;;;;;;1.77;1.67;;;20.50;53.70;;;;;;4937558;29;20027;-83
2022/06/02 10:18:42;;;;;;;1.77;1.67;;;20.50;53.10;;;;;;4937653;29;20376;-90
2022/06/02 10:21:33;;;;;;;2.10;1.80;;;20.60;53.00;;;;;;4953471;28;20186;-89
2022/06/02 10:24:33;;;;;;;1.83;1.52;;;20.70;52.80;;;;;;4953314;29;20063;-90
2022/06/02 10:27:08;;;;;;;1.88;1.70;;;20.80;52.40;;;;;;4936080;29;20086;-78
2022/06/02 10:29:56;;;;;;;2.15;1.70;;;20.80;52.00;;;;;;4951385;29;20023;-78
2022/06/02 10:32:53;;;;;;;2.13;1.60;;;20.90;51.70;;;;;;4936199;29;20039;-77
2022/06/02 10:35:34;;;;;;;1.70;1.60;;;21.00;51.50;;;;;;4952155;29;20095;-79
2022/06/02 10:38:21;;;;;;;1.55;1.42;;;21.00;50.80;;;;;;4920525;29;20049;-82
2022/06/02 10:41:08;;;;;;;1.67;1.30;;;21.00;50.60;;;;;;4953025;29;20035;-84
2022/06/02 10:43:55;;;;;;;1.85;1.35;;;21.10;50.50;;;;;;4937731;29;20404;-83
2022/06/02 10:47:08;;;;;;;1.58;1.40;;;21.10;50.40;;;;;;4952144;29;20036;-82
2022/06/02 10:50:17;;;;;;;1.70;1.30;;;21.20;50.20;;;;;;4951185;29;20028;-80
2022/06/02 10:53:13;;;;;;;1.60;1.30;;;21.20;50.60;;;;;;4914543;29;20386;-77
2022/06/02 10:56:11;;;;;;;2.08;1.40;;;21.30;49.70;;;;;;4935668;29;20413;-76
2022/06/02 10:58:53;;;;;;;1.90;1.52;;;21.30;49.80;;;;;;4934888;29;20592;-78
2022/06/02 11:01:42;;;;;;;2.03;1.52;;;21.40;49.80;;;;;;4936421;29;20449;-79
2022/06/02 11:04:14;;;;;;;1.67;1.50;;;21.40;49.70;;;;;;4951260;29;20448;-76
2022/06/02 11:07:31;;;;;;;1.75;1.60;;;21.50;49.60;;;;;;4950812;29;20024;-76
2022/06/02 11:10:21;;;;;;;2.50;1.70;;;21.60;49.60;;;;;;4934775;29;20083;-76
2022/06/02 11:13:08;;;;;;;2.22;1.73;;;21.70;49.50;;;;;;4934490;29;20110;-78
2022/06/02 11:15:59;;;;;;;1.67;1.52;;;21.70;49.40;;;;;;4950560;29;20036;-75
2022/06/02 11:18:39;;;;;;;2.10;1.60;;;21.70;49.30;;;;;;4934515;29;20485;-75
2022/06/02 11:21:05;;;;;;;2.13;1.65;;;21.70;49.10;;;;;;4934869;29;20118;-74
2022/06/02 11:23:54;;;;;;;2.05;1.60;;;21.80;49.10;;;;;;4934263;29;20433;-75
2022/06/02 11:26:32;;;;;;;1.73;1.35;;;21.80;49.00;;;;;;4951282;29;20095;-76
2022/06/02 11:29:30;;;;;;;1.65;1.45;;;21.80;48.80;;;;;;4935555;29;20039;-75
2022/06/02 11:32:11;;;;;;;2.13;1.60;;;21.90;49.00;;;;;;4934276;29;20046;-75
2022/06/02 11:35:11;;;;;;;1.60;1.35;;;21.90;49.10;;;;;;4938383;29;20028;-75
2022/06/02 11:37:46;;;;;;;1.40;1.30;;;21.80;48.80;;;;;;4954239;29;20449;-75
2022/06/02 11:40:21;;;;;;;1.52;1.42;;;21.90;48.70;;;;;;4954999;29;20095;-75
2022/06/02 11:43:00;;;;;;;;;;;21.90;48.70;;;;;;4939454;29;20055;-76
2022/06/02 11:45:48;;;;;;;1.77;1.20;;;21.90;48.90;;;;;;4955256;29;20348;-75
2022/06/02 11:48:51;;;;;;;1.55;1.23;;;22.00;48.50;;;;;;4955754;29;20042;-75
2022/06/02 11:52:08;;;;;;;1.92;1.40;;;21.90;48.20;;;;;;4939299;29;20219;-75
2022/06/02 11:54:56;;;;;;;1.38;1.27;;;21.90;48.40;;;;;;4909991;29;20040;-75
2022/06/02 11:57:59;;;;;;;1.40;1.30;;;21.90;48.10;;;;;;4939187;29;20031;-75
2022/06/02 12:00:52;;;;;;;1.25;1.15;;;21.90;48.10;;;;;;4938561;29;20032;-74
2022/06/02 12:03:55;;;;;;;1.80;1.20;;;21.90;47.90;;;;;;4954915;29;20108;-75
2022/06/02 12:06:57;;;;;;;1.45;1.20;;;22.00;48.00;;;;;;4939153;29;20087;-75
2022/06/02 12:09:48;;;;;;;1.60;1.25;;;22.00;48.10;;;;;;4954520;29;20469;-75
2022/06/02 12:12:19;;;;;;;1.30;1.20;;;22.00;48.00;;;;;;4939448;29;20032;-75
2022/06/02 12:15:21;;;;;;;2.47;1.30;;;22.00;47.80;;;;;;4955219;29;20043;-75
2022/06/02 12:18:05;;;;;;;1.77;1.40;;;22.00;47.80;;;;;;4940031;29;20039;-77
2022/06/02 12:21:15;;;;;;;1.75;1.33;;;22.00;47.80;;;;;;4953882;29;20047;-77
2022/06/02 12:24:08;;;;;;;1.77;1.30;;;22.10;48.00;;;;;;4954217;28;20067;-75
2022/06/02 12:27:05;;;;;;;1.38;1.27;;;22.10;48.20;;;;;;4938401;29;20047;-75
2022/06/02 12:29:31;;;;;;;1.73;1.27;;;22.10;48.20;;;;;;4938968;29;20051;-76
2022/06/02 12:32:34;;;;;;;1.30;1.10;;;22.10;48.00;;;;;;4953745;29;20470;-75
2022/06/02 12:35:26;;;;;;;1.40;1.30;;;22.10;48.00;;;;;;4938507;29;20039;-75
2022/06/02 12:38:25;;;;;;;1.58;1.48;;;22.20;48.20;;;;;;4938050;29;20028;-79
2022/06/02 12:41:27;;;;;;;1.35;1.20;;;22.20;48.20;;;;;;4887966;29;20064;-76
2022/06/02 12:44:11;;;;;;;1.48;1.30;;;22.20;48.40;;;;;;4936806;29;20046;-75
2022/06/02 12:46:56;;;;;;;1.40;1.10;;;22.20;48.10;;;;;;4953699;29;20087;-75
2022/06/02 12:49:24;;;;;;;1.08;1.00;;;22.30;47.90;;;;;;4953161;29;20024;-75
2022/06/02 12:52:14;;;;;;;1.92;1.27;;;22.30;47.80;;;;;;4952981;29;20035;-75
2022/06/02 12:54:40;;;;;;;1.30;1.20;;;22.30;47.70;;;;;;4953186;29;20031;-76
2022/06/02 12:57:09;;;;;;;1.30;1.20;;;22.40;47.70;;;;;;4952918;29;20030;-76
2022/06/02 13:00:13;;;;;;;3.83;1.27;;;22.40;47.40;;;;;;4952810;29;20031;-76
2022/06/02 13:03:13;;;;;;;1.33;1.23;;;22.40;47.40;;;;;;4914789;29;20051;-76
2022/06/02 13:06:03;;;;;;;1.40;1.13;;;22.50;47.50;;;;;;4938241;29;20032;-76
2022/06/02 13:09:04;;;;;;;1.20;1.10;;;22.50;47.60;;;;;;4953457;29;20039;-76
2022/06/02 13:11:50;;;;;;;1.67;1.30;;;22.50;47.50;;;;;;4914247;29;20392;-78
2022/06/02 13:14:53;;;;;;;1.20;1.10;;;22.60;47.40;;;;;;4891716;29;20111;-77
2022/06/02 13:17:57;;;;;;;1.20;1.10;;;22.60;47.30;;;;;;4937659;29;20027;-76
2022/06/02 13:20:32;;;;;;;1.75;1.10;;;22.60;47.20;;;;;;4937592;29;20034;-77
2022/06/02 13:23:27;;;;;;;2.00;1.45;;;22.60;46.90;;;;;;4952804;29;20353;-76
2022/06/02 13:26:15;;;;;;;1.15;1.08;;;22.60;46.90;;;;;;4937494;29;20096;-78
2022/06/02 13:29:03;;;;;;;1.35;1.25;;;22.70;46.80;;;;;;4952368;29;20027;-76
2022/06/02 13:32:00;;;;;;;1.88;1.42;;;22.70;46.60;;;;;;4952171;29;20031;-77
2022/06/02 13:34:45;;;;;;;1.40;1.23;;;22.70;47.20;;;;;;4952434;29;20034;-75
2022/06/02 13:37:29;;;;;;;1.20;1.02;;;22.70;46.50;;;;;;4952955;29;20118;-76
2022/06/02 13:39:55;;;;;;;1.25;1.15;;;22.80;46.60;;;;;;4952892;29;20044;-76
2022/06/02 13:42:25;;;;;;;1.80;1.33;;;22.80;46.60;;;;;;4951990;29;20043;-76
2022/06/02 13:45:15;;;;;;;1.30;1.10;;;22.80;46.40;;;;;;4937075;29;20060;-76
2022/06/02 13:48:19;;;;;;;2.47;1.58;;;22.80;46.20;;;;;;4935925;29;20499;-76
2022/06/02 13:51:19;;;;;;;1.38;1.27;;;22.80;46.10;;;;;;4936929;29;20035;-75
2022/06/02 14:00:26;;;;;;;1.52;1.42;;;22.90;45.90;;;;;;4951921;29;20035;-76
2022/06/02 14:02:51;;;;;;;1.48;1.38;;;22.90;46.00;;;;;;4952403;29;20020;-76
2022/06/02 14:05:39;;;;;;;1.63;1.30;;;22.90;45.90;;;;;;4952802;29;20076;-75
2022/06/02 14:08:44;;;;;;;1.50;1.40;;;22.90;45.80;;;;;;4937185;29;20032;-76
2022/06/02 14:11:32;;;;;;;1.45;1.35;;;22.90;45.70;;;;;;4891382;29;20122;-77
2022/06/02 14:14:25;;;;;;;1.90;1.40;;;23.00;46.30;;;;;;4951733;29;20087;-77
2022/06/02 14:17:02;;;;;;;2.10;1.50;;;23.00;45.60;;;;;;4951201;29;20040;-77
2022/06/02 14:19:55;;;;;;;1.40;1.30;;;23.00;45.50;;;;;;4935777;29;20095;-77
2022/06/02 14:22:58;;;;;;;1.45;1.35;;;23.00;45.50;;;;;;4951884;29;20436;-80
2022/06/02 14:25:46;;;;;;;1.58;1.27;;;23.00;45.40;;;;;;4935788;29;20066;-79
2022/06/02 14:28:48;;;;;;;1.38;1.27;;;23.10;45.40;;;;;;4936324;29;20495;-76
2022/06/02 14:31:48;;;;;;;1.33;1.23;;;23.10;45.40;;;;;;4935527;29;20035;-75
2022/06/02 14:34:29;;;;;;;1.52;1.20;;;23.10;45.20;;;;;;4936180;29;20083;-76
2022/06/02 14:37:25;;;;;;;1.15;1.10;;;23.10;45.10;;;;;;4936282;29;20115;-77
2022/06/02 14:40:01;;;;;;;1.00;0.90;;;23.10;45.00;;;;;;4936120;29;20097;-77